Time;durP1;ratioP1;P1;durP2;ratioP2;P2;SDS_P1;SDS_P2;PMS_P1;PMS_P2;Temp;Humidity;BMP_temperature;BMP_pressure;BME280_temperature;BME280_humidity;BME280_pressure;Samples;Min_cycle;Max_cycle;Signal;HPM_P1;HPM_P2
2021/10/06 00:00:23;;;;;;;3.17;2.95;;;14.00;59.00;;;;;;5000495;28;20045;-81
2021/10/06 00:02:49;;;;;;;3.38;2.78;;;14.00;58.90;;;;;;5000628;28;20132;-81
2021/10/06 00:05:15;;;;;;;4.63;3.38;;;14.00;58.90;;;;;;5018610;28;20052;-80
2021/10/06 00:07:41;;;;;;;5.32;3.70;;;14.00;58.90;;;;;;5018927;28;20034;-81
2021/10/06 00:10:08;;;;;;;6.13;3.60;;;13.90;58.90;;;;;;5018252;28;20098;-82
2021/10/06 00:12:34;;;;;;;5.50;3.40;;;14.00;59.00;;;;;;5018017;28;20125;-82
2021/10/06 00:15:00;;;;;;;6.13;4.00;;;14.00;59.10;;;;;;5018463;28;20491;-81
2021/10/06 00:17:26;;;;;;;5.57;3.85;;;14.00;59.00;;;;;;5017987;28;20036;-79
2021/10/06 00:19:52;;;;;;;5.65;3.83;;;14.00;58.90;;;;;;5019076;28;20042;-80
2021/10/06 00:22:21;;;;;;;5.95;4.38;;;13.90;58.80;;;;;;5018365;28;20147;-81
2021/10/06 00:24:47;;;;;;;7.28;4.55;;;13.90;58.80;;;;;;5017145;28;20491;-80
2021/10/06 00:27:14;;;;;;;7.80;4.32;;;14.00;58.80;;;;;;4999554;28;20041;-80
2021/10/06 00:29:40;;;;;;;6.28;4.90;;;13.90;58.60;;;;;;4988465;28;20029;-80
2021/10/06 00:32:06;;;;;;;8.05;4.95;;;13.90;58.80;;;;;;5018918;28;20026;-79
2021/10/06 00:34:32;;;;;;;8.32;5.05;;;13.90;58.70;;;;;;5017225;28;20033;-80
2021/10/06 00:36:58;;;;;;;7.13;4.90;;;13.90;58.70;;;;;;5018557;28;20026;-80
2021/10/06 00:39:23;;;;;;;5.63;4.45;;;13.90;58.70;;;;;;5017864;28;20025;-80
2021/10/06 00:41:50;;;;;;;7.30;4.53;;;13.90;58.90;;;;;;5017689;28;20045;-80
2021/10/06 00:44:20;;;;;;;4.28;3.85;;;13.90;58.90;;;;;;5017953;28;20033;-81
2021/10/06 00:46:47;;;;;;;5.65;3.85;;;13.90;58.80;;;;;;4988271;28;20028;-81
2021/10/06 00:49:15;;;;;;;5.65;3.88;;;13.90;58.80;;;;;;5016401;28;20056;-79
2021/10/06 00:51:41;;;;;;;7.03;4.00;;;13.90;58.90;;;;;;5016939;28;20049;-80
2021/10/06 00:54:08;;;;;;;4.78;4.00;;;13.90;58.90;;;;;;5019127;28;20179;-80
2021/10/06 00:56:35;;;;;;;5.35;3.95;;;13.90;58.80;;;;;;5017380;28;20105;-80
2021/10/06 00:59:01;;;;;;;5.35;3.80;;;13.90;58.80;;;;;;5018181;28;20091;-80
2021/10/06 01:01:27;;;;;;;4.00;3.20;;;13.80;58.80;;;;;;5017230;28;20538;-81
2021/10/06 01:03:53;;;;;;;4.38;3.70;;;13.80;59.40;;;;;;5016729;28;20038;-80
2021/10/06 01:06:19;;;;;;;5.25;3.17;;;13.80;58.80;;;;;;5004087;28;20033;-80
2021/10/06 01:08:45;;;;;;;4.10;3.53;;;13.90;58.70;;;;;;5016397;28;20030;-81
2021/10/06 01:11:12;;;;;;;4.55;3.70;;;13.80;58.60;;;;;;5017909;28;20124;-80
2021/10/06 01:13:38;;;;;;;5.57;3.75;;;13.80;58.70;;;;;;5016767;28;20029;-81
2021/10/06 01:16:05;;;;;;;4.93;3.58;;;13.80;58.60;;;;;;5017493;28;20120;-80
2021/10/06 01:18:31;;;;;;;7.43;3.80;;;13.80;58.60;;;;;;5017597;28;20044;-80
2021/10/06 01:21:01;;;;;;;4.30;3.83;;;13.80;58.50;;;;;;4986525;28;20379;-80
2021/10/06 01:23:26;;;;;;;6.70;4.00;;;13.80;58.60;;;;;;5017139;28;20424;-80
2021/10/06 01:25:52;;;;;;;5.65;3.30;;;13.80;58.60;;;;;;5000022;28;20044;-80
2021/10/06 01:28:18;;;;;;;5.32;3.30;;;13.80;58.70;;;;;;5018674;28;20030;-80
2021/10/06 01:30:44;;;;;;;5.65;3.65;;;13.80;58.70;;;;;;5016407;28;20041;-81
2021/10/06 01:33:10;;;;;;;6.05;3.40;;;13.80;58.60;;;;;;5016729;28;20635;-81
2021/10/06 01:35:36;;;;;;;4.70;3.38;;;13.80;58.60;;;;;;5000597;28;20415;-80
2021/10/06 01:38:02;;;;;;;3.67;3.38;;;13.80;58.70;;;;;;4999123;28;20367;-80
2021/10/06 01:40:28;;;;;;;5.43;3.47;;;13.70;58.60;;;;;;5016810;28;20044;-80
2021/10/06 01:42:54;;;;;;;7.50;3.67;;;13.80;58.60;;;;;;5000063;28;20034;-80
2021/10/06 01:45:26;;;;;;;5.15;3.65;;;13.80;58.50;;;;;;5016267;28;20041;-81
2021/10/06 01:47:52;;;;;;;4.30;3.08;;;13.80;58.40;;;;;;5016055;28;20432;-81
2021/10/06 01:50:27;;;;;;;5.60;3.47;;;13.70;58.50;;;;;;5017782;28;20038;-81
2021/10/06 01:52:54;;;;;;;4.37;3.60;;;13.70;58.60;;;;;;5016247;28;20088;-80
2021/10/06 01:55:27;;;;;;;5.60;3.65;;;13.80;58.60;;;;;;5016738;28;20042;-80
2021/10/06 01:57:54;;;;;;;5.30;3.78;;;13.70;58.60;;;;;;4999098;28;20532;-80
2021/10/06 02:00:20;;;;;;;5.78;3.58;;;13.70;58.50;;;;;;4986939;28;20034;-80
2021/10/06 02:02:46;;;;;;;5.28;3.85;;;13.70;58.60;;;;;;4999546;28;20388;-80
2021/10/06 02:05:12;;;;;;;5.70;3.67;;;13.70;58.60;;;;;;4999275;28;20041;-80
2021/10/06 02:07:38;;;;;;;5.38;3.35;;;13.70;58.50;;;;;;5016541;28;20121;-82
2021/10/06 02:10:05;;;;;;;5.80;3.63;;;13.70;58.50;;;;;;5016846;28;20037;-82
2021/10/06 02:12:31;;;;;;;5.15;3.60;;;13.70;58.50;;;;;;5017223;28;20404;-83
2021/10/06 02:14:57;;;;;;;3.92;3.53;;;13.70;58.60;;;;;;5015831;28;20029;-81
2021/10/06 02:17:23;;;;;;;5.65;3.60;;;13.70;58.50;;;;;;5016866;28;20554;-82
2021/10/06 02:19:49;;;;;;;4.90;3.60;;;13.70;58.40;;;;;;5017363;28;20033;-82
2021/10/06 02:22:15;;;;;;;6.57;4.07;;;13.70;58.40;;;;;;5016345;28;20400;-82
2021/10/06 02:24:41;;;;;;;6.78;3.78;;;13.70;58.50;;;;;;5015429;28;20029;-82
2021/10/06 02:27:07;;;;;;;4.72;3.72;;;13.60;58.60;;;;;;5016204;28;20045;-82
2021/10/06 02:29:34;;;;;;;5.93;4.07;;;13.60;58.40;;;;;;5015464;28;20082;-82
2021/10/06 02:32:00;;;;;;;5.05;3.75;;;13.60;58.40;;;;;;5016595;28;20618;-81
2021/10/06 02:34:26;;;;;;;8.30;3.50;;;13.60;58.40;;;;;;5014826;28;20034;-82
2021/10/06 02:36:52;;;;;;;7.18;4.00;;;13.60;58.30;;;;;;4998747;28;20963;-82
2021/10/06 02:39:19;;;;;;;7.93;3.65;;;13.60;58.50;;;;;;5016692;28;20029;-82
2021/10/06 02:41:45;;;;;;;4.38;3.63;;;13.60;58.40;;;;;;5015443;28;20034;-79
2021/10/06 02:44:12;;;;;;;7.28;4.03;;;13.60;58.60;;;;;;4998858;28;20057;-80
2021/10/06 02:46:38;;;;;;;5.85;4.10;;;13.60;58.70;;;;;;5016765;28;20033;-80
2021/10/06 02:49:04;;;;;;;7.22;3.75;;;13.50;58.60;;;;;;5016746;28;20380;-80
2021/10/06 02:51:30;;;;;;;6.35;4.00;;;13.60;58.70;;;;;;5016690;28;20061;-80
2021/10/06 02:53:55;;;;;;;6.82;3.60;;;13.50;58.60;;;;;;5016506;28;20037;-82
2021/10/06 02:56:22;;;;;;;4.65;4.10;;;13.50;58.60;;;;;;5016868;28;20496;-82
2021/10/06 02:58:49;;;;;;;5.57;4.13;;;13.50;58.60;;;;;;5015774;28;20037;-82
2021/10/06 03:01:15;;;;;;;6.28;4.15;;;13.50;58.60;;;;;;5015493;28;20041;-81
2021/10/06 03:03:41;;;;;;;6.93;4.07;;;13.50;58.60;;;;;;4999150;28;20073;-82
2021/10/06 03:06:07;;;;;;;5.38;4.18;;;13.50;58.60;;;;;;5016331;28;20033;-82
2021/10/06 03:08:33;;;;;;;7.35;4.20;;;13.50;58.60;;;;;;4999476;28;20038;-82
2021/10/06 03:11:00;;;;;;;5.78;4.90;;;13.50;58.50;;;;;;5017176;28;20037;-82
2021/10/06 03:13:26;;;;;;;6.97;4.30;;;13.50;58.60;;;;;;5016219;28;20494;-83
2021/10/06 03:15:55;;;;;;;6.40;4.88;;;13.50;58.60;;;;;;5016127;28;20515;-81
2021/10/06 03:18:21;;;;;;;6.90;4.57;;;13.50;58.50;;;;;;5016956;28;20050;-82
2021/10/06 03:20:47;;;;;;;8.40;4.68;;;13.50;58.40;;;;;;4996755;28;20034;-82
2021/10/06 03:23:13;;;;;;;8.27;4.78;;;13.50;58.50;;;;;;5014968;28;20037;-81
2021/10/06 03:25:39;;;;;;;8.68;4.75;;;13.50;58.40;;;;;;5016716;28;20048;-81
2021/10/06 03:28:05;;;;;;;9.32;5.15;;;13.50;58.40;;;;;;5015445;28;20318;-82
2021/10/06 03:30:32;;;;;;;7.82;4.75;;;13.50;58.60;;;;;;5016467;28;20046;-81
2021/10/06 03:32:57;;;;;;;9.00;5.18;;;13.50;58.40;;;;;;5016678;28;20033;-78
2021/10/06 03:35:23;;;;;;;5.65;4.82;;;13.40;58.30;;;;;;5014985;28;20412;-82
2021/10/06 03:37:50;;;;;;;7.80;4.60;;;13.40;58.20;;;;;;5016184;28;20041;-81
2021/10/06 03:40:16;;;;;;;5.93;4.80;;;13.40;58.20;;;;;;5015568;28;20045;-80
2021/10/06 03:42:42;;;;;;;5.95;4.53;;;13.40;58.10;;;;;;4982275;28;20373;-81
2021/10/06 03:45:10;;;;;;;10.10;5.40;;;13.40;58.00;;;;;;4998246;28;20036;-81
2021/10/06 03:47:36;;;;;;;6.65;4.50;;;13.40;58.10;;;;;;4985050;28;20456;-81
2021/10/06 03:50:05;;;;;;;6.60;4.60;;;13.30;58.10;;;;;;5019479;28;20415;-82
2021/10/06 03:52:31;;;;;;;5.80;4.50;;;13.30;58.10;;;;;;5019333;28;20033;-83
2021/10/06 03:54:57;;;;;;;8.60;4.70;;;13.30;58.00;;;;;;5000972;28;20033;-82
2021/10/06 03:57:23;;;;;;;6.53;4.60;;;13.40;58.00;;;;;;5001815;28;20524;-83
2021/10/06 03:59:49;;;;;;;9.13;5.18;;;13.30;57.90;;;;;;5019757;28;20132;-83
2021/10/06 04:02:15;;;;;;;9.27;5.38;;;13.30;58.00;;;;;;5019174;28;20034;-82
2021/10/06 04:04:41;;;;;;;6.70;4.78;;;13.30;58.00;;;;;;5019440;28;20065;-82
2021/10/06 04:07:07;;;;;;;7.60;4.65;;;13.30;58.00;;;;;;5019972;28;20030;-83
2021/10/06 04:09:33;;;;;;;6.57;4.82;;;13.30;57.90;;;;;;5022634;28;20040;-81
2021/10/06 04:11:59;;;;;;;6.88;4.78;;;13.40;58.00;;;;;;5021098;28;20037;-82
2021/10/06 04:14:25;;;;;;;7.43;4.40;;;13.30;57.90;;;;;;5000707;28;20993;-83
2021/10/06 04:16:51;;;;;;;6.38;4.95;;;13.30;58.50;;;;;;5018819;28;20044;-83
2021/10/06 04:19:17;;;;;;;6.97;5.30;;;13.30;57.90;;;;;;5018936;28;20033;-82
2021/10/06 04:21:43;;;;;;;6.78;4.85;;;13.30;57.80;;;;;;5019687;28;20388;-85
2021/10/06 04:24:09;;;;;;;7.20;4.80;;;13.30;57.90;;;;;;4999852;28;20143;-82
2021/10/06 04:26:35;;;;;;;9.48;4.88;;;13.30;57.80;;;;;;5018677;28;20030;-82
2021/10/06 04:29:01;;;;;;;5.85;4.78;;;13.40;57.80;;;;;;5018887;28;20034;-81
2021/10/06 04:31:27;;;;;;;6.57;4.82;;;13.30;57.70;;;;;;5018451;28;20146;-81
2021/10/06 04:33:53;;;;;;;6.85;4.18;;;13.40;57.70;;;;;;5018941;28;20748;-83
2021/10/06 04:36:18;;;;;;;6.57;4.63;;;13.40;57.70;;;;;;5018835;28;20067;-83
2021/10/06 04:38:44;;;;;;;12.82;5.25;;;13.40;57.70;;;;;;5017897;28;20025;-82
2021/10/06 04:41:10;;;;;;;7.65;4.45;;;13.40;57.70;;;;;;4988607;28;20543;-81
2021/10/06 04:43:36;;;;;;;8.18;4.53;;;13.40;57.70;;;;;;5017694;28;20091;-82
2021/10/06 04:46:02;;;;;;;6.45;4.85;;;13.50;57.80;;;;;;5019254;28;20026;-82
2021/10/06 04:48:28;;;;;;;10.20;4.85;;;13.50;57.90;;;;;;5017524;28;20527;-82
2021/10/06 04:50:54;;;;;;;8.52;4.80;;;13.50;57.90;;;;;;5000415;28;20044;-80
2021/10/06 04:53:20;;;;;;;10.30;4.80;;;13.50;57.80;;;;;;5017557;28;20574;-81
2021/10/06 04:55:47;;;;;;;7.55;4.63;;;13.50;57.80;;;;;;5015690;28;20128;-81
2021/10/06 04:58:13;;;;;;;7.43;4.68;;;13.50;57.80;;;;;;5018252;28;20049;-81
2021/10/06 05:00:39;;;;;;;6.95;4.60;;;13.50;57.80;;;;;;5017982;28;20523;-81
2021/10/06 05:03:12;;;;;;;8.82;4.22;;;13.50;57.80;;;;;;5017554;28;20029;-81
2021/10/06 05:05:39;;;;;;;7.07;4.88;;;13.50;57.90;;;;;;4983673;28;20033;-81
2021/10/06 05:08:07;;;;;;;7.00;4.50;;;13.50;57.80;;;;;;4999967;28;20505;-81
2021/10/06 05:10:33;;;;;;;7.05;4.93;;;13.60;57.80;;;;;;5017452;28;20041;-81
2021/10/06 05:12:59;;;;;;;7.70;5.20;;;13.60;57.80;;;;;;5017851;28;20095;-81
2021/10/06 05:15:25;;;;;;;6.70;4.80;;;13.70;58.40;;;;;;5016536;28;20037;-81
2021/10/06 05:17:51;;;;;;;9.43;4.82;;;13.80;57.80;;;;;;5017042;28;20037;-82
2021/10/06 05:20:17;;;;;;;8.73;4.82;;;14.00;57.90;;;;;;5016371;28;20044;-81
2021/10/06 05:22:43;;;;;;;9.07;5.18;;;14.10;57.50;;;;;;5017661;28;20065;-82
2021/10/06 05:25:09;;;;;;;6.32;4.45;;;14.30;57.50;;;;;;5016546;28;20138;-82
2021/10/06 05:27:35;;;;;;;9.13;4.30;;;14.40;57.50;;;;;;5017444;28;20058;-81
2021/10/06 05:30:03;;;;;;;5.18;3.95;;;14.60;57.80;;;;;;5018186;28;20029;-81
2021/10/06 05:32:29;;;;;;;9.32;4.88;;;14.70;57.80;;;;;;5017719;28;20033;-80
2021/10/06 05:34:55;;;;;;;7.05;4.07;;;14.80;57.90;;;;;;5016610;28;20025;-82
2021/10/06 05:37:21;;;;;;;5.03;4.00;;;14.90;58.00;;;;;;5017365;28;20034;-81
2021/10/06 05:39:47;;;;;;;14.20;4.28;;;15.00;58.10;;;;;;5016761;28;20128;-83
2021/10/06 05:42:13;;;;;;;5.20;4.03;;;15.10;58.30;;;;;;5017032;28;20034;-81
2021/10/06 05:44:39;;;;;;;5.35;3.95;;;15.20;58.30;;;;;;5017407;28;20697;-81
2021/10/06 05:47:04;;;;;;;10.48;5.18;;;15.30;58.40;;;;;;4999781;28;20493;-84
2021/10/06 05:49:30;;;;;;;8.05;3.80;;;15.40;58.50;;;;;;4998673;28;20033;-81
2021/10/06 05:51:56;;;;;;;7.47;4.05;;;15.50;59.10;;;;;;4999332;28;20784;-83
2021/10/06 05:54:22;;;;;;;5.82;4.65;;;15.60;58.40;;;;;;5017299;28;20108;-80
2021/10/06 05:56:48;;;;;;;5.65;3.97;;;15.70;58.90;;;;;;5003219;28;20057;-82
2021/10/06 05:59:14;;;;;;;5.13;4.28;;;15.70;58.60;;;;;;5015148;28;20038;-81
2021/10/06 06:01:40;;;;;;;7.07;3.92;;;15.80;59.30;;;;;;5016765;28;20372;-81
2021/10/06 06:04:06;;;;;;;6.28;4.32;;;15.90;58.70;;;;;;4998198;28;20088;-81
2021/10/06 06:06:32;;;;;;;6.70;3.88;;;16.00;58.80;;;;;;5016361;28;20475;-83
2021/10/06 06:08:58;;;;;;;7.07;4.72;;;16.10;58.70;;;;;;5016926;28;20028;-82
2021/10/06 06:11:26;;;;;;;6.85;4.32;;;16.20;58.70;;;;;;5016700;28;20034;-81
2021/10/06 06:13:52;;;;;;;8.60;4.20;;;16.30;58.60;;;;;;5016427;28;20029;-82
2021/10/06 06:16:18;;;;;;;6.88;3.83;;;16.40;58.70;;;;;;5017160;28;20065;-82
2021/10/06 06:18:45;;;;;;;9.95;4.38;;;16.50;58.70;;;;;;5015614;28;20076;-83
2021/10/06 06:21:11;;;;;;;4.95;4.07;;;16.60;58.80;;;;;;5017426;28;20621;-83
2021/10/06 06:23:37;;;;;;;6.63;4.18;;;16.70;58.90;;;;;;5016400;28;20052;-82
2021/10/06 06:26:03;;;;;;;4.80;4.00;;;16.80;58.80;;;;;;5016817;28;20666;-83
2021/10/06 06:28:29;;;;;;;7.60;4.00;;;16.90;58.60;;;;;;4983060;28;20033;-83
2021/10/06 06:30:56;;;;;;;9.88;4.25;;;16.90;58.00;;;;;;4999420;28;20508;-82
2021/10/06 06:33:21;;;;;;;5.90;4.28;;;17.00;57.60;;;;;;4999428;28;20042;-83
2021/10/06 06:35:47;;;;;;;11.40;4.90;;;17.10;57.40;;;;;;4995905;28;20124;-83
2021/10/06 06:38:13;;;;;;;11.68;5.32;;;17.10;56.60;;;;;;5021094;28;20052;-85
2021/10/06 06:40:41;;;;;;;12.48;5.07;;;17.20;55.40;;;;;;5009184;28;20559;-84
2021/10/06 06:43:08;;;;;;;11.90;5.57;;;17.20;54.30;;;;;;5028154;28;20179;-84
2021/10/06 06:45:34;;;;;;;12.88;5.03;;;17.30;53.60;;;;;;5023324;28;20047;-83
2021/10/06 06:48:02;;;;;;;16.92;5.93;;;17.40;53.30;;;;;;5025064;28;20290;-85
2021/10/06 06:50:28;;;;;;;10.40;5.60;;;17.50;51.70;;;;;;5023758;28;20042;-90
2021/10/06 06:52:53;;;;;;;18.45;6.20;;;17.60;52.20;;;;;;4989744;28;20392;-83
2021/10/06 06:55:19;;;;;;;12.57;5.75;;;17.60;53.60;;;;;;5021931;28;20037;-85
2021/10/06 06:57:46;;;;;;;9.38;4.68;;;17.70;52.80;;;;;;5024035;28;20057;-85
2021/10/06 07:00:13;;;;;;;8.88;5.13;;;17.70;52.60;;;;;;5006427;28;20124;-87
2021/10/06 07:02:39;;;;;;;9.60;5.60;;;17.80;52.20;;;;;;5007446;28;20088;-83
2021/10/06 07:05:05;;;;;;;11.38;5.45;;;17.80;51.40;;;;;;5003935;28;20037;-83
2021/10/06 07:07:31;;;;;;;10.30;5.25;;;17.80;51.80;;;;;;5006167;28;20030;-86
2021/10/06 07:09:57;;;;;;;14.88;5.70;;;17.90;51.00;;;;;;5022927;28;20109;-86
2021/10/06 07:12:23;;;;;;;17.20;6.00;;;17.90;51.50;;;;;;5009676;28;20025;-85
2021/10/06 07:14:50;;;;;;;12.52;6.03;;;17.90;51.40;;;;;;5013643;28;20393;-85
2021/10/06 07:17:19;;;;;;;12.27;5.63;;;18.00;50.90;;;;;;4998245;28;20072;-86
2021/10/06 07:19:48;;;;;;;15.15;5.50;;;18.00;50.80;;;;;;5001155;28;20558;-87
2021/10/06 07:22:17;;;;;;;9.98;5.63;;;18.00;51.10;;;;;;5006342;28;20037;-85
2021/10/06 07:24:43;;;;;;;11.55;5.40;;;18.10;50.90;;;;;;5000879;28;20030;-86
2021/10/06 07:27:10;;;;;;;10.05;5.50;;;18.10;50.30;;;;;;5017868;28;20037;-85
2021/10/06 07:29:37;;;;;;;9.77;5.60;;;18.10;50.20;;;;;;4982662;28;20424;-85
2021/10/06 07:32:04;;;;;;;14.55;5.88;;;18.10;50.20;;;;;;5012313;28;20041;-85
2021/10/06 07:34:30;;;;;;;12.38;5.25;;;18.10;50.40;;;;;;4994637;28;20033;-85
2021/10/06 07:36:56;;;;;;;9.82;5.38;;;18.10;50.40;;;;;;5034969;28;20042;-85
2021/10/06 07:39:22;;;;;;;7.53;5.18;;;18.10;50.70;;;;;;4991882;28;20033;-85
2021/10/06 07:41:48;;;;;;;10.10;5.10;;;18.10;50.50;;;;;;5033031;28;20034;-85
2021/10/06 07:44:16;;;;;;;6.72;4.78;;;18.10;50.60;;;;;;5009093;28;20033;-85
2021/10/06 07:46:42;;;;;;;11.00;5.03;;;18.10;51.10;;;;;;5015723;28;20076;-85
2021/10/06 07:49:09;;;;;;;11.80;5.25;;;18.10;51.20;;;;;;5031558;28;20061;-84
2021/10/06 07:51:36;;;;;;;11.45;5.20;;;18.00;50.60;;;;;;5031421;28;20514;-86
2021/10/06 07:54:04;;;;;;;12.52;5.85;;;18.10;50.70;;;;;;5032942;28;20412;-86
2021/10/06 07:56:30;;;;;;;11.57;5.65;;;18.10;50.30;;;;;;5011288;28;20045;-86
2021/10/06 07:58:56;;;;;;;8.70;4.82;;;18.00;49.70;;;;;;5015420;28;20045;-87
2021/10/06 08:01:22;;;;;;;11.25;5.63;;;18.00;49.90;;;;;;4993560;28;20033;-85
2021/10/06 08:03:48;;;;;;;13.73;5.55;;;18.00;50.00;;;;;;5002205;28;20048;-84
2021/10/06 08:06:14;;;;;;;12.48;6.28;;;18.00;50.20;;;;;;5002032;28;20033;-85
2021/10/06 08:08:40;;;;;;;8.98;5.50;;;18.00;50.40;;;;;;4985926;28;20477;-85
2021/10/06 08:11:06;;;;;;;9.90;5.10;;;17.90;50.30;;;;;;5001326;28;20160;-85
2021/10/06 08:13:32;;;;;;;11.90;5.57;;;17.90;50.30;;;;;;5002041;28;20041;-85
2021/10/06 08:15:58;;;;;;;8.30;5.50;;;17.90;50.20;;;;;;4998357;28;20034;-85
2021/10/06 08:18:25;;;;;;;11.00;5.72;;;17.80;49.80;;;;;;4986416;28;20034;-85
2021/10/06 08:20:52;;;;;;;12.82;5.63;;;17.90;49.80;;;;;;4984851;28;20566;-84
2021/10/06 08:23:20;;;;;;;13.48;5.60;;;17.80;49.80;;;;;;5001562;28;20085;-85
2021/10/06 08:25:48;;;;;;;9.25;5.63;;;17.80;50.10;;;;;;4990360;28;20036;-87
2021/10/06 08:28:14;;;;;;;14.25;8.00;;;17.70;50.00;;;;;;5002072;28;20499;-86
2021/10/06 08:30:41;;;;;;;11.48;7.72;;;17.70;50.50;;;;;;4984998;28;20139;-86
2021/10/06 08:33:07;;;;;;;14.75;7.40;;;17.70;50.80;;;;;;5000744;28;20037;-87
2021/10/06 08:35:34;;;;;;;13.98;6.70;;;17.70;51.00;;;;;;4985127;28;20073;-86
2021/10/06 08:38:03;;;;;;;10.10;6.03;;;17.70;50.90;;;;;;4984988;28;20033;-86
2021/10/06 08:40:29;;;;;;;11.23;6.20;;;17.60;50.80;;;;;;5002489;28;20037;-85
2021/10/06 08:42:55;;;;;;;9.63;5.45;;;17.70;50.80;;;;;;4973632;28;20062;-85
2021/10/06 08:45:22;;;;;;;14.93;6.55;;;17.60;51.50;;;;;;5001302;28;20508;-87
2021/10/06 08:47:47;;;;;;;10.13;5.88;;;17.60;51.00;;;;;;5001982;28;20400;-87
2021/10/06 08:50:17;;;;;;;9.82;5.75;;;17.60;51.30;;;;;;5020185;28;20067;-86
2021/10/06 08:52:47;;;;;;;11.85;6.10;;;17.60;51.00;;;;;;4984316;28;20412;-86
2021/10/06 08:55:13;;;;;;;10.43;5.47;;;17.60;51.10;;;;;;4999820;28;20038;-86
2021/10/06 08:57:40;;;;;;;11.05;6.18;;;17.50;51.20;;;;;;5019104;28;20065;-85
2021/10/06 09:00:07;;;;;;;13.63;5.85;;;17.50;51.10;;;;;;5020625;28;20489;-86
2021/10/06 09:02:40;;;;;;;8.52;5.80;;;17.50;51.40;;;;;;4984310;28;20032;-85
2021/10/06 09:05:07;;;;;;;10.80;5.45;;;17.40;51.20;;;;;;4999677;28;20029;-86
2021/10/06 09:07:59;;;;;;;12.57;5.93;;;17.40;51.30;;;;;;5018984;28;20033;-84
2021/10/06 09:10:28;;;;;;;11.95;5.70;;;17.40;51.40;;;;;;4991749;28;20033;-87
2021/10/06 09:12:55;;;;;;;10.82;5.82;;;17.40;51.60;;;;;;5029844;28;20030;-86
2021/10/06 09:15:21;;;;;;;10.20;5.68;;;17.40;51.40;;;;;;4999646;28;20492;-87
2021/10/06 09:17:54;;;;;;;12.40;5.57;;;17.30;51.60;;;;;;4995810;28;20030;-86
2021/10/06 09:20:20;;;;;;;5.95;5.00;;;17.30;51.60;;;;;;4976816;28;20038;-87
2021/10/06 09:23:11;;;;;;;11.15;5.50;;;17.30;52.00;;;;;;4977079;28;20034;-87
2021/10/06 09:25:47;;;;;;;8.98;5.40;;;17.20;51.50;;;;;;5003996;28;20065;-87
2021/10/06 09:28:20;;;;;;;10.98;5.40;;;17.20;51.30;;;;;;4999353;28;20034;-87
2021/10/06 09:30:46;;;;;;;12.35;5.95;;;17.20;51.70;;;;;;4985758;28;20038;-87
2021/10/06 09:33:12;;;;;;;10.27;5.50;;;17.20;51.50;;;;;;4976718;28;20441;-88
2021/10/06 09:35:38;;;;;;;11.95;5.72;;;17.10;52.30;;;;;;5004283;28;20044;-88
2021/10/06 09:38:04;;;;;;;9.40;5.85;;;17.10;51.90;;;;;;5033427;28;20048;-88
2021/10/06 09:40:31;;;;;;;12.98;5.75;;;17.10;51.90;;;;;;5007942;28;20037;-88
2021/10/06 09:43:03;;;;;;;8.50;5.60;;;17.10;52.10;;;;;;5012224;28;20034;-86
2021/10/06 09:45:30;;;;;;;14.55;5.80;;;17.10;52.30;;;;;;4983718;28;20037;-85
2021/10/06 09:48:12;;;;;;;9.18;5.85;;;17.10;52.20;;;;;;4998067;28;20540;-86
2021/10/06 09:50:45;;;;;;;8.35;5.32;;;17.10;52.30;;;;;;5023359;28;20119;-86
2021/10/06 09:53:16;;;;;;;9.23;5.03;;;17.10;52.00;;;;;;4998472;28;20494;-87
2021/10/06 09:55:45;;;;;;;10.93;5.47;;;17.00;51.90;;;;;;4991794;28;20511;-87
2021/10/06 09:58:12;;;;;;;14.40;6.25;;;17.10;52.10;;;;;;5007736;28;20103;-86
2021/10/06 10:00:40;;;;;;;10.55;5.70;;;17.00;52.00;;;;;;5000245;28;20472;-86
2021/10/06 10:03:06;;;;;;;12.00;5.45;;;17.10;51.80;;;;;;4999204;28;20040;-87
2021/10/06 10:05:36;;;;;;;6.72;5.40;;;17.10;51.90;;;;;;4999498;28;20037;-87
2021/10/06 10:08:03;;;;;;;8.35;5.78;;;17.00;52.10;;;;;;5003751;28;20037;-88
2021/10/06 10:10:32;;;;;;;7.85;5.25;;;17.00;51.90;;;;;;4983524;28;20045;-87
2021/10/06 10:12:59;;;;;;;10.43;5.78;;;17.00;51.80;;;;;;4991105;28;20044;-87
2021/10/06 10:15:25;;;;;;;6.85;5.18;;;17.00;51.80;;;;;;5017793;28;20045;-88
2021/10/06 10:17:53;;;;;;;9.43;5.40;;;17.00;51.80;;;;;;4993253;28;20424;-88
2021/10/06 10:20:20;;;;;;;6.75;5.45;;;17.00;51.90;;;;;;5007181;28;20044;-88
2021/10/06 10:22:55;;;;;;;11.60;5.63;;;17.00;51.80;;;;;;5007066;28;20037;-88
2021/10/06 10:25:25;;;;;;;8.05;4.85;;;17.00;51.80;;;;;;5010543;28;20038;-89
2021/10/06 10:28:11;;;;;;;5.65;4.72;;;17.00;51.90;;;;;;5007656;28;20037;-87
2021/10/06 10:30:39;;;;;;;9.25;4.75;;;17.00;51.80;;;;;;4987314;28;20045;-87
2021/10/06 10:33:06;;;;;;;8.27;5.03;;;16.90;51.60;;;;;;4970840;28;20033;-87
2021/10/06 10:35:42;;;;;;;9.50;4.97;;;17.00;51.60;;;;;;4998272;28;20038;-84
2021/10/06 10:38:10;;;;;;;8.27;5.10;;;16.90;51.70;;;;;;4985639;28;20561;-86
2021/10/06 10:40:43;;;;;;;6.60;4.63;;;16.90;51.70;;;;;;5006904;28;20048;-87
2021/10/06 10:43:21;;;;;;;9.07;5.47;;;16.90;51.70;;;;;;4975819;28;20037;-88
2021/10/06 10:45:59;;;;;;;6.72;5.15;;;16.90;51.50;;;;;;4986288;28;20033;-83
2021/10/06 10:48:27;;;;;;;12.85;5.32;;;16.90;51.90;;;;;;5017604;28;20388;-92
2021/10/06 10:50:54;;;;;;;7.55;4.35;;;16.90;52.00;;;;;;5001132;28;20029;-88
2021/10/06 10:53:21;;;;;;;6.22;4.70;;;16.90;51.80;;;;;;5018375;28;20030;-91
2021/10/06 10:55:52;;;;;;;13.00;4.82;;;16.90;51.90;;;;;;5004607;28;20517;-90
2021/10/06 10:58:43;;;;;;;8.32;5.15;;;16.90;52.00;;;;;;5021188;28;20063;-90
2021/10/06 11:01:15;;;;;;;6.10;4.68;;;16.90;52.40;;;;;;5004461;28;20026;-89
2021/10/06 11:04:07;;;;;;;6.57;4.15;;;16.90;52.40;;;;;;4979272;28;20040;-90
2021/10/06 11:06:36;;;;;;;6.85;4.38;;;16.90;52.10;;;;;;5020152;28;20030;-91
2021/10/06 11:09:31;;;;;;;9.15;4.50;;;16.90;52.10;;;;;;5026935;28;20053;-90
2021/10/06 11:12:20;;;;;;;7.78;4.50;;;16.90;52.30;;;;;;5029280;28;20068;-92
2021/10/06 11:14:48;;;;;;;6.57;4.63;;;16.90;52.00;;;;;;5017626;28;20041;-91
2021/10/06 11:17:19;;;;;;;9.43;4.75;;;16.90;51.90;;;;;;5017936;28;20087;-93
2021/10/06 11:19:51;;;;;;;7.25;4.97;;;16.90;51.90;;;;;;5034437;28;20033;-91
2021/10/06 11:22:23;;;;;;;6.70;3.97;;;16.90;51.90;;;;;;5016435;28;20088;-91
2021/10/06 11:24:50;;;;;;;6.95;4.72;;;17.00;52.00;;;;;;5021923;28;20488;-93
2021/10/06 11:27:17;;;;;;;7.18;4.63;;;16.90;51.60;;;;;;5035952;28;20035;-93
2021/10/06 11:29:45;;;;;;;4.97;4.22;;;17.00;51.60;;;;;;5034492;28;20465;-91
2021/10/06 11:32:10;;;;;;;7.25;4.43;;;17.00;51.70;;;;;;5003712;28;20042;-92
2021/10/06 11:34:52;;;;;;;6.13;4.22;;;17.00;51.60;;;;;;5028429;28;20041;-92
2021/10/06 11:37:34;;;;;;;6.90;4.97;;;17.00;51.30;;;;;;5035031;28;20392;-92
2021/10/06 11:40:00;;;;;;;8.50;4.18;;;17.00;51.60;;;;;;5031722;28;20030;-91
2021/10/06 11:42:32;;;;;;;8.02;4.60;;;16.90;51.60;;;;;;4998663;28;20384;-91
2021/10/06 11:44:59;;;;;;;12.48;4.85;;;16.90;51.50;;;;;;4991800;28;20029;-91
2021/10/06 11:47:25;;;;;;;6.82;4.90;;;17.00;51.30;;;;;;5035456;28;20471;-91
2021/10/06 11:49:51;;;;;;;7.32;4.53;;;17.00;51.20;;;;;;5034331;28;20065;-92
2021/10/06 11:52:19;;;;;;;5.72;4.63;;;17.00;51.00;;;;;;5017800;28;20038;-93
2021/10/06 11:54:47;;;;;;;6.32;5.05;;;16.90;50.50;;;;;;5018617;28;20033;-89
2021/10/06 11:57:14;;;;;;;8.45;4.95;;;16.90;50.20;;;;;;5005157;28;20085;-90
2021/10/06 11:59:45;;;;;;;8.10;4.80;;;16.90;50.10;;;;;;4990466;28;20130;-90
2021/10/06 12:02:13;;;;;;;7.47;5.35;;;16.90;50.00;;;;;;5019567;28;20091;-83
2021/10/06 12:04:42;;;;;;;8.13;5.05;;;16.90;49.90;;;;;;5007504;28;20045;-89
2021/10/06 12:07:13;;;;;;;12.02;5.38;;;16.90;49.90;;;;;;5001526;28;20125;-92
2021/10/06 12:09:46;;;;;;;8.00;5.10;;;16.80;49.40;;;;;;5020200;28;20038;-91
2021/10/06 12:12:15;;;;;;;6.68;5.00;;;16.80;49.40;;;;;;5002961;28;20096;-89
2021/10/06 12:14:48;;;;;;;8.27;5.15;;;16.80;49.50;;;;;;4976305;28;20568;-92
2021/10/06 12:17:26;;;;;;;7.22;5.35;;;16.80;49.60;;;;;;4990368;28;20069;-91
2021/10/06 12:20:07;;;;;;;9.95;5.55;;;16.80;49.50;;;;;;5017646;28;20041;-91
2021/10/06 12:22:35;;;;;;;7.70;6.20;;;16.80;49.40;;;;;;5004493;28;20033;-90
2021/10/06 12:25:10;;;;;;;8.68;5.20;;;16.70;49.30;;;;;;5004848;28;20037;-92
2021/10/06 12:27:39;;;;;;;7.93;5.57;;;16.70;49.40;;;;;;5017697;28;20030;-92
2021/10/06 12:30:16;;;;;;;8.10;5.45;;;16.70;49.40;;;;;;4993814;28;20030;-92
2021/10/06 12:32:44;;;;;;;10.63;5.35;;;16.70;49.60;;;;;;4996130;28;20034;-89
2021/10/06 12:35:20;;;;;;;7.95;5.35;;;16.70;49.60;;;;;;5016808;28;20127;-91
2021/10/06 12:37:56;;;;;;;;;;;16.70;49.50;;;;;;5017366;28;20480;-91
2021/10/06 12:40:42;;;;;;;7.10;5.53;;;16.70;49.80;;;;;;5028166;28;19964;-93
2021/10/06 12:43:14;;;;;;;7.60;5.10;;;16.70;49.80;;;;;;4998092;28;20041;-92
2021/10/06 12:46:00;;;;;;;8.05;5.82;;;16.70;49.70;;;;;;5004829;28;20029;-93
2021/10/06 12:48:35;;;;;;;11.45;5.68;;;16.70;49.60;;;;;;4993599;28;20029;-88